Phlox, Wisconsin
Current Conditions -  °F | °C
As of 7:15 PM on Friday 19 Dec 2014 (Local Time) from KAIG Reporting Station
Broken Clouds Broken Clouds  
Wind Chill: 14°   Ceiling: 8500
Heat Index: 20°   Visibility: 10mi
Dew Point: 17°   Wind: 5mph
Humidity: 87%   Direction: 240°WSW
Pressure: 30.22"   Gusts: NA
Location:  45.05°N, 89.01°W
Report Text: KAIG 200115Z AUTO 24004KT 10SM BKN085 M06/M08 A3022 RMK AO2 T10651084
Loading
Personal Weather Stations






























Interactive Weather Map New forecast layout! Learn more

10-Day Weather Forecast

Advertisements
Track Severe Weather on mobile